createdAt,value
2022-09-10T15:18:41.433Z,1.20
2022-09-10T15:21:12.385Z,1.30
2022-09-10T15:23:39.563Z,1.20
2022-09-10T15:26:07.704Z,1.10
2022-09-10T15:28:35.163Z,1.40
2022-09-10T15:31:02.198Z,1.17
2022-09-10T15:33:29.717Z,1.00
2022-09-10T15:35:57.349Z,1.23
2022-09-10T15:38:25.098Z,1.15
2022-09-10T15:41:04.387Z,1.48
2022-09-10T15:43:37.957Z,1.10
2022-09-10T15:46:05.207Z,1.40
2022-09-10T15:48:33.916Z,1.40
2022-09-10T15:51:11.672Z,1.10
2022-09-10T15:53:40.050Z,1.33
2022-09-10T15:56:09.757Z,1.10
2022-09-10T15:58:37.337Z,1.30
2022-09-10T16:01:12.888Z,1.30
2022-09-10T16:03:48.351Z,1.10
2022-09-10T16:06:18.732Z,1.45
2022-09-10T16:08:57.047Z,1.10
2022-09-10T16:11:25.873Z,1.10
2022-09-10T16:13:52.976Z,1.27
2022-09-10T16:16:24.435Z,1.17
2022-09-10T16:18:56.335Z,1.20
2022-09-10T16:21:26.564Z,1.10
2022-09-10T16:23:58.075Z,1.10
2022-09-10T16:26:30.404Z,1.30
2022-09-10T16:29:03.172Z,1.33
2022-09-10T16:31:32.892Z,1.13
2022-09-10T16:34:07.359Z,1.15
2022-09-10T16:36:37.254Z,1.33
2022-09-10T16:39:12.271Z,1.20
2022-09-10T16:41:44.366Z,1.23
2022-09-10T16:44:13.275Z,1.40
2022-09-10T16:46:41.227Z,1.33
2022-09-10T16:49:13.194Z,1.45
2022-09-10T16:51:42.701Z,1.98
2022-09-10T16:54:10.962Z,1.38
2022-09-10T16:56:44.163Z,1.40
2022-09-10T16:59:22.873Z,1.20
2022-09-10T17:01:52.184Z,0.93
2022-09-10T17:04:27.577Z,1.10
2022-09-10T17:06:58.027Z,1.20
2022-09-10T17:09:25.942Z,0.90
2022-09-10T17:11:53.678Z,1.10
2022-09-10T17:14:21.152Z,1.20
2022-09-10T17:16:49.042Z,1.20
2022-09-10T17:19:20.634Z,1.00
2022-09-10T17:21:52.950Z,1.20
2022-09-10T17:24:22.951Z,1.20
2022-09-10T17:26:51.422Z,1.10
2022-09-10T17:29:21.184Z,1.13
2022-09-10T17:31:52.722Z,1.10
2022-09-10T17:34:21.786Z,1.42
2022-09-10T17:36:49.301Z,1.35
2022-09-10T17:39:17.132Z,1.20
2022-09-10T17:41:45.022Z,1.52
2022-09-10T17:44:13.756Z,1.38
2022-09-10T17:46:43.078Z,1.55
2022-09-10T17:49:14.363Z,1.20
2022-09-10T17:51:42.990Z,1.60
2022-09-10T17:54:10.961Z,1.85
2022-09-10T17:56:42.020Z,1.42
2022-09-10T17:59:14.782Z,1.42
2022-09-10T18:01:43.172Z,1.42
2022-09-10T18:04:14.794Z,1.33
2022-09-10T18:06:42.732Z,1.30
2022-09-10T18:09:11.731Z,1.40
2022-09-10T18:11:40.567Z,2.17
2022-09-10T18:14:08.525Z,1.20
2022-09-10T18:16:37.136Z,1.02
2022-09-10T18:19:12.899Z,0.98
2022-09-10T18:21:42.558Z,1.33
2022-09-10T18:24:14.951Z,1.10
2022-09-10T18:26:44.812Z,1.40
2022-09-10T18:29:15.700Z,1.42
2022-09-10T18:31:53.457Z,1.30
2022-09-10T18:34:24.490Z,1.27
2022-09-10T18:36:56.592Z,1.20
2022-09-10T18:39:25.651Z,1.10
2022-09-10T18:41:53.463Z,1.10
2022-09-10T18:44:26.959Z,1.38
2022-09-10T18:46:57.002Z,1.17
2022-09-10T18:49:25.567Z,1.48
2022-09-10T18:51:54.863Z,1.63
2022-09-10T18:54:22.877Z,1.77
2022-09-10T18:56:50.655Z,1.30
2022-09-10T18:59:21.025Z,1.88
2022-09-10T19:01:50.098Z,1.50
2022-09-10T19:04:22.096Z,1.55
2022-09-10T19:06:52.719Z,1.60
2022-09-10T19:09:23.915Z,1.58
2022-09-10T19:11:53.729Z,1.52
2022-09-10T19:14:30.378Z,1.40
2022-09-10T19:16:59.639Z,2.53
2022-09-10T19:19:32.800Z,1.65
2022-09-10T19:22:07.461Z,1.45
2022-09-10T19:24:53.872Z,1.30
2022-09-10T19:27:22.038Z,1.65
2022-09-10T19:29:50.294Z,1.60
2022-09-10T19:32:20.058Z,1.42
2022-09-10T19:34:50.529Z,1.88
2022-09-10T19:37:17.750Z,1.48
2022-09-10T19:39:46.629Z,1.38
2022-09-10T19:42:15.117Z,1.92
2022-09-10T19:44:42.427Z,1.23
2022-09-10T19:47:09.783Z,1.67
2022-09-10T19:49:37.037Z,1.50
2022-09-10T19:52:04.703Z,1.55
2022-09-10T19:54:32.152Z,1.25
2022-09-10T19:56:59.166Z,1.55
2022-09-10T19:59:26.296Z,1.35
2022-09-10T20:01:53.843Z,1.30
2022-09-10T20:04:21.312Z,1.55
2022-09-10T20:06:50.660Z,1.23
2022-09-10T20:09:18.263Z,1.52
2022-09-10T20:11:48.468Z,1.73
2022-09-10T20:14:16.569Z,1.55
2022-09-10T20:16:47.279Z,1.50
2022-09-10T20:19:22.433Z,1.40
2022-09-10T20:21:52.148Z,1.33
2022-09-10T20:24:20.259Z,1.10
2022-09-10T20:26:49.266Z,1.15
2022-09-10T20:29:21.790Z,1.27
2022-09-10T20:31:49.598Z,1.33
2022-09-10T20:34:20.609Z,1.17
2022-09-10T20:36:51.506Z,1.30
2022-09-10T20:39:23.974Z,1.10
2022-09-10T20:41:59.474Z,1.15
2022-09-10T20:44:27.055Z,1.15
2022-09-10T20:46:54.697Z,1.15
2022-09-10T20:49:21.861Z,2.00
2022-09-10T20:51:49.525Z,1.00
2022-09-10T20:54:18.875Z,1.40
2022-09-10T20:56:46.799Z,1.05
2022-09-10T20:59:16.020Z,0.90
2022-09-10T21:01:46.708Z,0.98
2022-09-10T21:04:19.869Z,1.00
2022-09-10T21:06:51.831Z,1.00
2022-09-10T21:09:19.402Z,1.00
2022-09-10T21:11:46.907Z,1.20
2022-09-10T21:14:14.456Z,0.65
2022-09-10T21:16:43.714Z,0.95
2022-09-10T21:19:16.740Z,0.90
2022-09-10T21:21:46.255Z,0.82
2022-09-10T21:24:16.953Z,0.65
2022-09-10T21:26:45.110Z,0.82
2022-09-10T21:29:19.214Z,0.80
2022-09-10T21:31:54.904Z,0.77
2022-09-10T21:34:22.744Z,0.88
2022-09-10T21:36:49.939Z,0.82
2022-09-10T21:39:18.769Z,0.70
2022-09-10T21:41:48.321Z,0.93
2022-09-10T21:44:18.317Z,0.90
2022-09-10T21:46:46.721Z,0.70
2022-09-10T21:49:14.853Z,0.63
2022-09-10T21:51:43.172Z,0.70
2022-09-10T21:54:21.114Z,0.73
2022-09-10T21:56:52.319Z,0.70
2022-09-10T21:59:23.216Z,0.60
2022-09-10T22:01:50.843Z,0.57
2022-09-10T22:04:22.424Z,1.02
2022-09-10T22:06:50.440Z,0.85
2022-09-10T22:09:18.372Z,0.77
2022-09-10T22:11:50.701Z,0.70
2022-09-10T22:14:23.056Z,0.80
2022-09-10T22:16:51.530Z,0.70
2022-09-10T22:19:28.748Z,0.80
2022-09-10T22:21:57.883Z,0.77
2022-09-10T22:24:26.506Z,0.75
2022-09-10T22:26:53.849Z,0.90
2022-09-10T22:29:21.111Z,0.88
2022-09-10T22:31:48.570Z,1.10
2022-09-10T22:34:17.350Z,0.90
2022-09-10T22:36:46.649Z,0.82
2022-09-10T22:39:21.881Z,0.73
2022-09-10T22:41:50.479Z,0.95
2022-09-10T22:44:18.350Z,0.80
2022-09-10T22:46:45.326Z,0.80
2022-09-10T22:49:12.581Z,1.30
2022-09-10T22:51:43.689Z,1.00
2022-09-10T22:54:11.243Z,1.00
2022-09-10T22:56:40.079Z,1.10
2022-09-10T22:59:07.999Z,1.10
2022-09-10T23:01:37.997Z,1.80
2022-09-10T23:04:07.613Z,2.90
2022-09-10T23:06:37.640Z,2.97
2022-09-10T23:09:08.214Z,3.28
2022-09-10T23:11:37.212Z,2.42
2022-09-10T23:14:11.636Z,2.20
2022-09-10T23:16:41.399Z,2.30
2022-09-10T23:19:13.150Z,2.80
2022-09-10T23:21:46.043Z,2.70
2022-09-10T23:24:17.541Z,2.60
2022-09-10T23:26:46.123Z,2.90
2022-09-10T23:29:13.364Z,2.65
2022-09-10T23:31:41.289Z,2.60
2022-09-10T23:34:12.286Z,2.45
2022-09-10T23:36:42.544Z,2.45
2022-09-10T23:39:14.406Z,2.10
2022-09-10T23:41:41.964Z,2.53
2022-09-10T23:44:10.192Z,2.30
2022-09-10T23:46:37.872Z,2.70
2022-09-10T23:49:05.654Z,2.17
2022-09-10T23:51:34.305Z,2.40
2022-09-10T23:54:01.568Z,2.70
2022-09-10T23:56:30.182Z,2.78
2022-09-10T23:59:00.976Z,2.53
